createdAt,value
2022-12-03T00:00:55.439Z,100724.00
2022-12-03T00:03:28.649Z,100725.00
2022-12-03T00:06:01.588Z,100726.00
2022-12-03T00:08:38.801Z,100720.00
2022-12-03T00:11:11.869Z,100722.00
2022-12-03T00:13:44.774Z,100723.00
2022-12-03T00:16:22.155Z,100721.00
2022-12-03T00:18:54.997Z,100727.00
2022-12-03T00:21:27.881Z,100722.00
2022-12-03T00:24:00.861Z,100726.00
2022-12-03T00:26:33.669Z,100727.00
2022-12-03T00:29:06.545Z,100733.00
2022-12-03T00:31:39.606Z,100734.00
2022-12-03T00:34:12.551Z,100734.00
2022-12-03T00:36:50.277Z,100738.00
2022-12-03T00:39:23.286Z,100737.00
2022-12-03T00:41:56.280Z,100730.00
2022-12-03T00:44:29.295Z,100730.00
2022-12-03T00:47:02.340Z,100728.00
2022-12-03T00:49:35.471Z,100724.00
2022-12-03T00:52:08.494Z,100729.00
2022-12-03T00:54:41.561Z,100727.00
2022-12-03T00:57:14.533Z,100725.00
2022-12-03T00:59:47.423Z,100724.00
2022-12-03T01:02:20.588Z,100719.00
2022-12-03T01:04:53.889Z,100717.00
2022-12-03T01:07:27.398Z,100723.00
2022-12-03T01:10:02.847Z,100720.00
2022-12-03T01:12:35.812Z,100724.00
2022-12-03T01:15:09.804Z,100716.00
2022-12-03T01:17:43.214Z,100720.00
2022-12-03T01:20:17.177Z,100718.00
2022-12-03T01:22:50.602Z,100721.00
2022-12-03T01:25:23.665Z,100723.00
2022-12-03T01:27:56.773Z,100720.00
2022-12-03T01:30:29.624Z,100727.00
2022-12-03T01:33:02.629Z,100728.00
2022-12-03T01:35:35.772Z,100736.00
2022-12-03T01:38:08.990Z,100739.00
2022-12-03T01:40:42.223Z,100737.00
2022-12-03T01:43:15.152Z,100742.00
2022-12-03T01:45:48.952Z,100736.00
2022-12-03T01:48:22.364Z,100751.00
2022-12-03T01:50:55.353Z,100750.00
2022-12-03T01:53:28.752Z,100745.00
2022-12-03T01:56:01.576Z,100741.00
2022-12-03T01:58:35.055Z,100743.00
2022-12-03T02:01:09.737Z,100738.00
2022-12-03T02:03:42.656Z,100737.00
2022-12-03T02:06:20.997Z,100731.00
2022-12-03T02:08:55.669Z,100746.00
2022-12-03T02:11:30.795Z,100743.00
2022-12-03T02:14:08.766Z,100743.00
2022-12-03T02:16:43.204Z,100742.00
2022-12-03T02:19:24.414Z,100749.00
2022-12-03T02:21:59.567Z,100741.00
2022-12-03T02:24:37.818Z,100738.00
2022-12-03T02:27:11.154Z,100727.00
2022-12-03T02:29:44.160Z,100729.00
2022-12-03T02:32:17.364Z,100728.00
2022-12-03T02:34:51.621Z,100726.00
2022-12-03T02:37:34.083Z,100726.00
2022-12-03T02:40:08.734Z,100730.00
2022-12-03T02:42:41.550Z,100718.00
2022-12-03T02:45:25.565Z,100720.00
2022-12-03T02:48:00.227Z,100725.00
2022-12-03T02:50:36.113Z,100723.00
2022-12-03T02:53:13.550Z,100722.00
2022-12-03T02:55:47.157Z,100727.00
2022-12-03T02:58:20.382Z,100722.00
2022-12-03T03:00:53.703Z,100722.00
2022-12-03T03:03:28.104Z,100711.00
2022-12-03T03:06:02.263Z,100715.00
2022-12-03T03:08:35.587Z,100704.00
2022-12-03T03:11:08.716Z,100708.00
2022-12-03T03:13:42.173Z,100703.00
2022-12-03T03:16:15.195Z,100709.00
2022-12-03T03:18:48.220Z,100711.00
2022-12-03T03:21:21.186Z,100710.00
2022-12-03T03:23:57.552Z,100721.00
2022-12-03T03:26:30.868Z,100712.00
2022-12-03T03:29:05.064Z,100712.00
2022-12-03T03:31:38.324Z,100714.00
2022-12-03T03:34:11.521Z,100725.00
2022-12-03T03:36:45.417Z,100729.00
2022-12-03T03:39:19.461Z,100729.00
2022-12-03T03:41:52.388Z,100726.00
2022-12-03T03:44:25.353Z,100725.00
2022-12-03T03:46:58.677Z,100726.00
2022-12-03T03:49:31.726Z,100729.00
2022-12-03T03:52:04.660Z,100741.00
2022-12-03T03:54:38.036Z,100739.00
2022-12-03T03:57:13.272Z,100726.00
2022-12-03T03:59:50.737Z,100719.00
2022-12-03T04:02:25.193Z,100724.00
2022-12-03T04:04:58.322Z,100731.00
2022-12-03T04:07:31.159Z,100736.00
2022-12-03T04:10:05.238Z,100737.00
2022-12-03T04:12:55.846Z,100756.00
2022-12-03T04:15:29.519Z,100749.00
2022-12-03T04:18:19.932Z,100746.00
2022-12-03T04:20:52.945Z,100746.00
2022-12-03T04:23:30.768Z,100750.00
2022-12-03T04:26:17.343Z,100744.00
2022-12-03T04:28:53.337Z,100746.00
2022-12-03T04:31:43.495Z,100753.00
2022-12-03T04:34:33.998Z,100751.00
2022-12-03T04:37:06.893Z,100745.00
2022-12-03T04:39:40.311Z,100753.00
2022-12-03T04:42:13.324Z,100756.00
2022-12-03T04:44:46.320Z,100759.00
2022-12-03T04:47:21.449Z,100770.00
2022-12-03T04:49:55.300Z,100768.00
2022-12-03T04:52:28.262Z,100765.00
2022-12-03T04:55:01.339Z,100769.00
2022-12-03T04:57:34.699Z,100777.00
2022-12-03T05:00:08.022Z,100774.00
2022-12-03T05:02:41.021Z,100777.00
2022-12-03T05:05:14.448Z,100768.00
2022-12-03T05:07:47.338Z,100773.00
2022-12-03T05:10:20.294Z,100782.00
2022-12-03T05:12:53.339Z,100783.00
2022-12-03T05:15:26.336Z,100780.00
2022-12-03T05:17:59.230Z,100789.00
2022-12-03T05:20:49.790Z,100787.00
2022-12-03T05:23:21.671Z,100797.00
2022-12-03T05:25:54.535Z,100807.00
2022-12-03T05:28:27.521Z,100806.00
2022-12-03T05:31:00.432Z,100815.00
2022-12-03T05:33:33.744Z,100814.00
2022-12-03T05:36:06.675Z,100819.00
2022-12-03T05:38:39.812Z,100813.00
2022-12-03T05:41:31.287Z,100813.00
2022-12-03T05:44:04.543Z,100825.00
2022-12-03T05:46:37.827Z,100819.00
2022-12-03T05:49:10.838Z,100827.00
2022-12-03T05:51:44.954Z,100838.00
2022-12-03T05:54:18.007Z,100838.00
2022-12-03T05:56:51.215Z,100846.00
2022-12-03T05:59:24.155Z,100857.00
2022-12-03T06:01:57.095Z,100855.00
2022-12-03T06:04:34.315Z,100861.00
2022-12-03T06:07:12.378Z,100854.00
2022-12-03T06:09:41.443Z,100851.00
2022-12-03T06:12:14.438Z,100854.00
2022-12-03T06:14:47.321Z,100862.00
2022-12-03T06:17:20.260Z,100860.00
2022-12-03T06:19:57.653Z,100863.00
2022-12-03T06:22:30.675Z,100867.00
2022-12-03T06:25:06.522Z,100868.00
2022-12-03T06:27:37.984Z,100869.00
2022-12-03T06:30:12.274Z,100883.00
2022-12-03T06:32:45.117Z,100876.00
2022-12-03T06:35:18.310Z,100875.00
2022-12-03T06:37:51.600Z,100890.00
2022-12-03T06:40:25.852Z,100887.00
2022-12-03T06:42:58.950Z,100888.00
2022-12-03T06:45:32.061Z,100900.00
2022-12-03T06:48:05.056Z,100901.00
2022-12-03T06:50:37.928Z,100898.00
2022-12-03T06:53:11.009Z,100903.00
2022-12-03T06:55:43.968Z,100910.00
2022-12-03T06:58:16.906Z,100904.00
2022-12-03T07:00:50.014Z,100919.00
2022-12-03T07:03:27.907Z,100925.00
2022-12-03T07:06:01.055Z,100933.00
2022-12-03T07:08:33.933Z,100930.00
2022-12-03T07:11:06.921Z,100947.00
2022-12-03T07:13:39.991Z,100939.00
2022-12-03T07:16:13.305Z,100939.00
2022-12-03T07:18:46.392Z,100934.00
2022-12-03T07:21:19.562Z,100943.00
2022-12-03T07:23:52.691Z,100944.00
2022-12-03T07:26:28.863Z,100941.00
2022-12-03T07:29:02.041Z,100954.00
2022-12-03T07:31:35.294Z,100957.00
2022-12-03T07:34:08.281Z,100963.00
2022-12-03T07:36:41.331Z,100959.00
2022-12-03T07:39:14.556Z,100965.00
2022-12-03T07:41:47.394Z,100971.00
2022-12-03T07:44:20.688Z,100972.00
2022-12-03T07:46:53.836Z,100979.00
2022-12-03T07:49:26.912Z,100975.00
2022-12-03T07:51:59.962Z,100993.00
2022-12-03T07:54:32.731Z,100996.00
2022-12-03T07:57:05.724Z,101000.00
2022-12-03T07:59:38.491Z,101003.00
2022-12-03T08:02:20.781Z,101006.00
2022-12-03T08:04:48.398Z,101006.00
2022-12-03T08:07:24.120Z,101010.00
2022-12-03T08:09:57.062Z,101005.00
2022-12-03T08:12:44.296Z,101006.00
2022-12-03T08:15:32.237Z,101017.00
2022-12-03T08:18:04.477Z,101008.00
2022-12-03T08:20:39.481Z,101011.00
2022-12-03T08:23:23.670Z,101019.00
2022-12-03T08:25:57.182Z,101032.00
2022-12-03T08:28:31.072Z,101033.00
2022-12-03T08:31:16.021Z,101033.00
2022-12-03T08:33:49.549Z,101039.00
2022-12-03T08:36:31.517Z,101046.00
2022-12-03T08:39:11.846Z,101043.00
2022-12-03T08:42:13.518Z,101046.00
2022-12-03T08:44:46.044Z,101053.00
2022-12-03T08:47:26.029Z,101040.00
2022-12-03T08:50:07.339Z,101053.00
2022-12-03T08:52:44.781Z,101055.00
2022-12-03T08:55:39.522Z,101069.00
2022-12-03T08:58:29.742Z,101070.00
2022-12-03T09:01:16.851Z,101065.00
2022-12-03T09:03:59.585Z,101072.00
2022-12-03T09:06:32.394Z,101076.00
2022-12-03T09:09:06.900Z,101071.00
2022-12-03T09:11:39.406Z,101077.00
2022-12-03T09:14:18.133Z,101073.00
2022-12-03T09:16:46.733Z,101088.00
2022-12-03T09:19:19.691Z,101093.00
2022-12-03T09:21:52.587Z,101090.00
2022-12-03T09:24:28.576Z,101093.00
2022-12-03T09:27:01.615Z,101086.00
2022-12-03T09:29:34.719Z,101088.00
2022-12-03T09:32:07.618Z,101083.00
2022-12-03T09:34:40.409Z,101084.00
2022-12-03T09:37:13.505Z,101077.00
2022-12-03T09:39:46.459Z,101088.00
2022-12-03T09:42:19.631Z,101087.00
2022-12-03T09:44:52.871Z,101092.00
2022-12-03T09:47:27.109Z,101088.00
2022-12-03T09:50:01.178Z,101088.00
2022-12-03T09:52:36.092Z,101091.00
2022-12-03T09:55:14.050Z,101083.00
2022-12-03T09:57:46.887Z,101094.00
2022-12-03T10:00:31.222Z,101088.00
2022-12-03T10:03:06.248Z,101099.00
2022-12-03T10:05:41.515Z,101099.00
2022-12-03T10:08:15.387Z,101095.00
2022-12-03T10:10:49.028Z,101100.00
2022-12-03T10:13:33.042Z,101108.00
2022-12-03T10:16:06.019Z,101105.00
2022-12-03T10:18:41.733Z,101105.00
2022-12-03T10:21:23.998Z,101100.00
2022-12-03T10:24:15.202Z,101096.00
2022-12-03T10:26:49.365Z,101100.00
2022-12-03T10:29:33.193Z,101107.00
2022-12-03T10:32:04.229Z,101108.00
2022-12-03T10:34:42.980Z,101105.00
2022-12-03T10:37:23.487Z,101105.00
2022-12-03T10:40:03.820Z,101103.00
2022-12-03T10:42:39.185Z,101106.00
2022-12-03T10:45:14.599Z,101109.00
2022-12-03T10:47:49.719Z,101099.00
2022-12-03T10:50:23.533Z,101107.00
2022-12-03T10:52:56.564Z,101114.00
2022-12-03T10:55:30.836Z,101109.00
2022-12-03T10:58:03.731Z,101101.00
2022-12-03T11:00:36.665Z,101118.00
2022-12-03T11:03:11.501Z,101114.00
2022-12-03T11:05:44.259Z,101103.00
2022-12-03T11:08:21.603Z,101112.00
2022-12-03T11:11:08.328Z,101113.00
2022-12-03T11:13:43.684Z,101113.00
2022-12-03T11:16:17.097Z,101112.00
2022-12-03T11:18:55.133Z,101113.00
2022-12-03T11:21:28.072Z,101113.00
2022-12-03T11:24:08.971Z,101099.00
2022-12-03T11:26:47.250Z,101101.00
2022-12-03T11:29:20.230Z,101101.00
2022-12-03T11:31:53.101Z,101104.00
2022-12-03T11:34:31.207Z,101100.00
2022-12-03T11:37:18.310Z,101104.00
2022-12-03T11:39:57.176Z,101101.00
2022-12-03T11:42:32.262Z,101106.00
2022-12-03T11:45:15.948Z,101092.00
2022-12-03T11:47:50.903Z,101094.00
2022-12-03T11:50:28.699Z,101100.00
2022-12-03T11:53:06.109Z,101095.00
2022-12-03T11:55:41.195Z,101096.00
2022-12-03T11:58:33.903Z,101112.00
2022-12-03T12:01:08.041Z,101101.00
2022-12-03T12:03:51.889Z,101109.00
2022-12-03T12:06:25.923Z,101101.00
2022-12-03T12:09:04.856Z,101094.00
2022-12-03T12:11:43.274Z,101088.00
2022-12-03T12:14:16.759Z,101095.00
2022-12-03T12:17:00.348Z,101100.00
2022-12-03T12:19:52.812Z,101103.00
2022-12-03T12:22:30.561Z,101095.00
2022-12-03T12:25:08.689Z,101101.00
2022-12-03T12:27:50.339Z,101103.00
2022-12-03T12:30:30.481Z,101095.00
2022-12-03T12:33:17.379Z,101092.00
2022-12-03T12:35:50.315Z,101091.00
2022-12-03T12:38:24.566Z,101107.00
2022-12-03T12:40:57.926Z,101099.00
2022-12-03T12:43:33.302Z,101096.00
2022-12-03T12:46:45.931Z,101101.00
2022-12-03T12:48:48.892Z,101095.00
2022-12-03T12:51:22.311Z,101110.00
2022-12-03T12:53:55.768Z,101113.00
2022-12-03T12:56:32.013Z,101103.00
2022-12-03T12:59:06.845Z,101096.00
2022-12-03T13:01:41.797Z,101105.00
2022-12-03T13:04:22.962Z,101100.00
2022-12-03T13:06:57.775Z,101109.00
2022-12-03T13:09:30.762Z,101113.00
2022-12-03T13:12:09.318Z,101121.00
2022-12-03T13:14:42.257Z,101112.00
2022-12-03T13:17:28.657Z,101118.00
2022-12-03T13:20:07.746Z,101110.00
2022-12-03T13:22:38.107Z,101106.00
2022-12-03T13:25:32.547Z,101108.00
2022-12-03T13:27:50.734Z,101107.00
2022-12-03T13:30:24.147Z,101108.00
2022-12-03T13:32:57.066Z,101111.00
2022-12-03T13:35:38.183Z,101120.00
2022-12-03T13:38:21.067Z,101122.00
2022-12-03T13:40:56.283Z,101130.00
2022-12-03T13:43:30.185Z,101124.00
2022-12-03T13:46:08.147Z,101119.00
2022-12-03T13:48:41.736Z,101120.00
2022-12-03T13:51:16.657Z,101114.00
2022-12-03T13:53:49.737Z,101113.00
2022-12-03T13:56:33.515Z,101113.00
2022-12-03T13:59:07.088Z,101111.00
2022-12-03T14:01:40.203Z,101117.00
2022-12-03T14:04:13.169Z,101114.00
2022-12-03T14:06:46.216Z,101102.00
2022-12-03T14:09:19.259Z,101109.00
2022-12-03T14:12:09.250Z,101105.00
2022-12-03T14:14:48.664Z,101108.00
2022-12-03T14:17:36.915Z,101114.00
2022-12-03T14:20:11.912Z,101108.00
2022-12-03T14:22:49.542Z,101109.00
2022-12-03T14:25:23.992Z,101118.00
2022-12-03T14:27:59.177Z,101115.00
2022-12-03T14:30:32.137Z,101113.00
2022-12-03T14:33:06.063Z,101106.00
2022-12-03T14:35:39.142Z,101109.00
2022-12-03T14:38:17.153Z,101103.00
2022-12-03T14:40:50.201Z,101106.00
2022-12-03T14:43:26.825Z,101121.00
2022-12-03T14:45:59.989Z,101113.00
2022-12-03T14:48:33.148Z,101121.00
2022-12-03T14:51:06.637Z,101105.00
2022-12-03T14:53:41.205Z,101115.00
2022-12-03T14:56:18.314Z,101120.00
2022-12-03T14:58:54.539Z,101115.00
2022-12-03T15:01:27.919Z,101113.00
2022-12-03T15:04:01.461Z,101106.00
2022-12-03T15:06:34.571Z,101115.00
2022-12-03T15:09:07.592Z,101109.00
2022-12-03T15:11:46.339Z,101107.00
2022-12-03T15:14:22.916Z,101115.00
2022-12-03T15:16:56.037Z,101114.00
2022-12-03T15:19:28.910Z,101112.00
2022-12-03T15:22:01.994Z,101114.00
2022-12-03T15:24:38.126Z,101110.00
2022-12-03T15:27:21.692Z,101110.00
2022-12-03T15:29:54.713Z,101116.00
2022-12-03T15:32:50.399Z,101117.00
2022-12-03T15:35:25.441Z,101104.00
2022-12-03T15:37:58.353Z,101111.00
2022-12-03T15:40:31.163Z,101101.00
2022-12-03T15:43:04.296Z,101090.00
2022-12-03T15:45:37.213Z,101094.00
2022-12-03T15:48:10.474Z,101102.00
2022-12-03T15:50:43.655Z,101104.00
2022-12-03T15:53:16.591Z,101094.00
2022-12-03T15:55:49.501Z,101111.00
2022-12-03T15:58:22.601Z,101102.00
2022-12-03T16:00:55.590Z,101108.00
2022-12-03T16:03:55.116Z,101116.00
2022-12-03T16:06:44.647Z,101113.00
2022-12-03T16:09:42.733Z,101120.00
2022-12-03T16:12:17.009Z,101128.00
2022-12-03T16:14:52.946Z,101128.00
2022-12-03T16:17:37.366Z,101133.00
2022-12-03T16:20:13.235Z,101128.00
2022-12-03T16:22:54.326Z,101128.00
2022-12-03T16:25:32.766Z,101135.00
2022-12-03T16:28:17.652Z,101135.00
2022-12-03T16:30:55.270Z,101138.00
2022-12-03T16:33:28.499Z,101142.00
2022-12-03T16:36:23.621Z,101146.00
2022-12-03T16:39:10.607Z,101137.00
2022-12-03T16:41:44.662Z,101140.00
2022-12-03T16:44:18.953Z,101150.00
2022-12-03T16:46:51.999Z,101145.00
2022-12-03T16:49:25.078Z,101146.00
2022-12-03T16:51:58.394Z,101151.00
2022-12-03T16:54:31.528Z,101150.00
2022-12-03T16:57:07.001Z,101152.00
2022-12-03T16:59:39.811Z,101158.00
2022-12-03T17:02:14.420Z,101160.00
2022-12-03T17:04:47.471Z,101159.00
2022-12-03T17:07:20.468Z,101161.00
2022-12-03T17:09:53.732Z,101164.00
2022-12-03T17:12:33.471Z,101160.00
2022-12-03T17:15:01.322Z,101166.00
2022-12-03T17:17:34.367Z,101184.00
2022-12-03T17:20:08.299Z,101188.00
2022-12-03T17:22:41.356Z,101185.00
2022-12-03T17:25:14.710Z,101190.00
2022-12-03T17:27:47.737Z,101189.00
2022-12-03T17:30:20.971Z,101193.00
2022-12-03T17:32:53.989Z,101193.00
2022-12-03T17:35:27.204Z,101195.00
2022-12-03T17:38:00.177Z,101202.00
2022-12-03T17:40:33.433Z,101202.00
2022-12-03T17:43:06.377Z,101205.00
2022-12-03T17:45:41.939Z,101202.00
2022-12-03T17:48:14.879Z,101209.00
2022-12-03T17:50:47.893Z,101214.00
2022-12-03T17:53:20.855Z,101214.00
2022-12-03T17:55:58.791Z,101211.00
2022-12-03T17:58:31.765Z,101213.00
2022-12-03T18:01:07.350Z,101215.00
2022-12-03T18:03:40.771Z,101215.00
2022-12-03T18:06:14.040Z,101231.00
2022-12-03T18:08:47.098Z,101226.00
2022-12-03T18:11:20.009Z,101225.00
2022-12-03T18:13:57.471Z,101238.00
2022-12-03T18:16:30.529Z,101231.00
2022-12-03T18:19:06.227Z,101236.00
2022-12-03T18:21:38.046Z,101239.00
2022-12-03T18:24:11.800Z,101229.00
2022-12-03T18:26:45.324Z,101240.00
2022-12-03T18:29:18.443Z,101242.00
2022-12-03T18:31:51.702Z,101254.00
2022-12-03T18:34:24.913Z,101253.00
2022-12-03T18:36:58.141Z,101260.00
2022-12-03T18:39:33.675Z,101256.00
2022-12-03T18:42:08.195Z,101263.00
2022-12-03T18:44:43.793Z,101263.00
2022-12-03T18:47:16.512Z,101261.00
2022-12-03T18:49:49.410Z,101265.00
2022-12-03T18:52:24.038Z,101278.00
2022-12-03T18:54:58.111Z,101270.00
2022-12-03T18:57:31.096Z,101282.00
2022-12-03T19:00:04.667Z,101284.00
2022-12-03T19:03:01.733Z,101281.00
2022-12-03T19:05:12.893Z,101278.00
2022-12-03T19:07:45.863Z,101285.00
2022-12-03T19:10:18.812Z,101287.00
2022-12-03T19:12:51.891Z,101289.00
2022-12-03T19:15:24.859Z,101290.00
2022-12-03T19:17:57.865Z,101292.00
2022-12-03T19:20:31.104Z,101299.00
2022-12-03T19:23:04.040Z,101296.00
2022-12-03T19:25:37.046Z,101301.00
2022-12-03T19:28:09.995Z,101303.00
2022-12-03T19:30:42.964Z,101292.00
2022-12-03T19:33:18.179Z,101303.00
2022-12-03T19:35:50.167Z,101297.00
2022-12-03T19:38:23.240Z,101300.00
2022-12-03T19:41:07.329Z,101300.00
2022-12-03T19:43:43.409Z,101303.00
2022-12-03T19:46:17.249Z,101307.00
2022-12-03T19:48:50.474Z,101309.00
2022-12-03T19:51:38.258Z,101308.00
2022-12-03T19:53:58.560Z,101315.00
2022-12-03T19:56:32.946Z,101314.00
2022-12-03T19:59:06.197Z,101314.00
2022-12-03T20:01:41.289Z,101324.00
2022-12-03T20:04:15.729Z,101325.00
2022-12-03T20:06:49.379Z,101324.00
2022-12-03T20:09:23.361Z,101321.00
2022-12-03T20:11:56.382Z,101323.00
2022-12-03T20:14:29.320Z,101322.00
2022-12-03T20:17:02.298Z,101338.00
2022-12-03T20:19:35.298Z,101343.00
2022-12-03T20:22:08.339Z,101337.00
2022-12-03T20:24:41.276Z,101338.00
2022-12-03T20:27:17.106Z,101340.00
2022-12-03T20:29:48.334Z,101339.00
2022-12-03T20:32:21.167Z,101346.00
2022-12-03T20:34:54.365Z,101348.00
2022-12-03T20:37:27.263Z,101341.00
2022-12-03T20:40:00.201Z,101334.00
2022-12-03T20:42:33.259Z,101330.00
2022-12-03T20:45:06.390Z,101341.00
2022-12-03T20:47:39.165Z,101345.00
2022-12-03T20:50:12.694Z,101355.00
2022-12-03T20:53:03.603Z,101342.00
2022-12-03T20:55:22.745Z,101342.00
2022-12-03T20:57:56.622Z,101347.00
2022-12-03T21:00:29.860Z,101349.00
2022-12-03T21:03:02.724Z,101356.00
2022-12-03T21:05:35.680Z,101352.00
2022-12-03T21:08:09.021Z,101349.00
2022-12-03T21:10:50.265Z,101360.00
2022-12-03T21:13:26.669Z,101360.00
2022-12-03T21:16:08.390Z,101349.00
2022-12-03T21:18:41.410Z,101352.00
2022-12-03T21:21:15.742Z,101355.00
2022-12-03T21:23:48.941Z,101342.00
2022-12-03T21:26:23.730Z,101349.00
2022-12-03T21:28:57.279Z,101341.00
2022-12-03T21:31:32.188Z,101356.00
2022-12-03T21:34:06.442Z,101352.00
2022-12-03T21:36:39.268Z,101362.00
2022-12-03T21:39:12.546Z,101349.00
2022-12-03T21:42:34.055Z,101356.00
2022-12-03T21:44:27.461Z,101352.00
2022-12-03T21:47:11.453Z,101343.00
2022-12-03T21:49:34.933Z,101349.00
2022-12-03T21:52:07.994Z,101342.00
2022-12-03T21:54:40.935Z,101350.00
2022-12-03T21:57:13.915Z,101356.00
2022-12-03T21:59:48.208Z,101348.00
2022-12-03T22:02:21.754Z,101348.00
2022-12-03T22:04:55.314Z,101345.00
2022-12-03T22:07:28.346Z,101341.00
2022-12-03T22:10:01.384Z,101342.00
2022-12-03T22:12:34.347Z,101352.00
2022-12-03T22:15:07.516Z,101337.00
2022-12-03T22:17:40.746Z,101343.00
2022-12-03T22:20:14.947Z,101339.00
2022-12-03T22:22:47.945Z,101344.00
2022-12-03T22:25:20.803Z,101345.00
2022-12-03T22:27:53.701Z,101351.00
2022-12-03T22:30:26.668Z,101345.00
2022-12-03T22:32:59.623Z,101356.00
2022-12-03T22:35:32.385Z,101355.00
2022-12-03T22:38:05.685Z,101346.00
2022-12-03T22:40:38.522Z,101335.00
2022-12-03T22:43:11.526Z,101343.00
2022-12-03T22:45:44.502Z,101346.00
2022-12-03T22:48:17.588Z,101349.00
2022-12-03T22:50:51.615Z,101356.00
2022-12-03T22:53:24.967Z,101339.00
2022-12-03T22:56:02.240Z,101344.00
2022-12-03T22:58:35.952Z,101348.00
2022-12-03T23:01:09.601Z,101338.00
2022-12-03T23:03:47.016Z,101347.00
2022-12-03T23:06:20.054Z,101341.00
2022-12-03T23:08:53.224Z,101344.00
2022-12-03T23:11:26.232Z,101336.00
2022-12-03T23:13:59.040Z,101339.00
2022-12-03T23:16:33.956Z,101339.00
2022-12-03T23:19:06.974Z,101342.00
2022-12-03T23:21:40.108Z,101343.00
2022-12-03T23:24:13.582Z,101347.00
2022-12-03T23:26:46.639Z,101341.00
2022-12-03T23:29:19.730Z,101346.00
2022-12-03T23:31:52.761Z,101341.00
2022-12-03T23:34:25.915Z,101359.00
2022-12-03T23:37:01.601Z,101346.00
2022-12-03T23:39:34.685Z,101344.00
2022-12-03T23:42:07.504Z,101345.00
2022-12-03T23:44:40.427Z,101343.00
2022-12-03T23:47:13.473Z,101343.00
2022-12-03T23:49:46.463Z,101339.00
2022-12-03T23:52:22.201Z,101345.00
2022-12-03T23:54:55.419Z,101339.00
2022-12-03T23:57:28.604Z,101344.00
